Augusta, Michigan
Current Conditions -  °F | °C
As of 9:53 PM on Friday 24 Oct 2014 (Local Time) from KBTL Reporting Station
Clear Clear  
Wind Chill: 46°   Ceiling: Unl
Heat Index: 46°   Visibility: 7mi
Dew Point: 43°   Wind: 3mph
Humidity: 89%   Direction: 180°S
Pressure: 29.98"   Gusts: NA
Location:  42.34°N, 85.35°W
Report Text: KBTL 250153Z 18003KT 7SM CLR 08/06 A2998 RMK AO2 SLP156 T00780061
Loading
Personal Weather Stations






























Interactive Weather Map New forecast layout! Learn more

10-Day Weather Forecast

Advertisements
Track Severe Weather on mobile